Observation data for Plains on 02/21/2019      Previous  Date  Next       Current Mesonet Observations  Soil Data  Daily Summary Page  Observations in Plain Language
KPPS 210600Z 16008KT 05/M11 A2981 RMK A01 T00451112  RH  031%=      5-min Rain = 0
KPPS 210605Z 16008KT 04/M11 A2981 RMK A01 T00441111  RH  031%=      5-min Rain = 0
KPPS 210610Z 15007KT 04/M11 A2981 RMK A01 T00421110  RH  032%=      5-min Rain = 0
KPPS 210615Z 15007KT 04/M11 A2982 RMK A01 T00391110  RH  033%=      5-min Rain = 0
KPPS 210620Z 14006KT 03/M11 A2981 RMK A01 T00341109  RH  034%=      5-min Rain = 0
KPPS 210625Z 14005KT 03/M11 A2981 RMK A01 T00311108  RH  035%=      5-min Rain = 0
KPPS 210630Z 14006KT 03/M11 A2981 RMK A01 T00281108  RH  036%=      5-min Rain = 0
KPPS 210635Z 14007KT 03/M11 A2981 RMK A01 T00251108  RH  037%=      5-min Rain = 0
KPPS 210640Z 14007KT 03/M11 A2981 RMK A01 T00251105  RH  037%=      5-min Rain = 0
KPPS 210645Z 14007KT 03/M10 A2981 RMK A01 T00281102  RH  037%=      5-min Rain = 0
KPPS 210650Z 14007KT 03/M10 A2981 RMK A01 T00291102  RH  037%=      5-min Rain = 0
KPPS 210655Z 15007KT 03/M10 A2982 RMK A01 T00301101  RH  037%=      5-min Rain = 0
KPPS 210700Z 15006KT 03/M10 A2982 RMK A01 T00311099  RH  038%=      5-min Rain = 0
KPPS 210705Z 15007KT 04/M09 A2982 RMK A01 T00351093  RH  038%=      5-min Rain = 0
KPPS 210710Z 16007KT 04/M09 A2982 RMK A01 T00391089  RH  039%=      5-min Rain = 0
KPPS 210715Z 16007KT 04/M09 A2982 RMK A01 T00431086  RH  039%=      5-min Rain = 0
KPPS 210720Z 16006KT 04/M08 A2982 RMK A01 T00441084  RH  039%=      5-min Rain = 0
KPPS 210725Z 16007KT 04/M08 A2982 RMK A01 T00441082  RH  039%=      5-min Rain = 0
KPPS 210730Z 17007KT 05/M08 A2982 RMK A01 T00451080  RH  040%=      5-min Rain = 0
KPPS 210735Z 17007KT 04/M08 A2982 RMK A01 T00441078  RH  040%=      5-min Rain = 0
KPPS 210740Z 17007KT 05/M08 A2982 RMK A01 T00451076  RH  041%=      5-min Rain = 0
KPPS 210745Z 17008KT 05/M07 A2982 RMK A01 T00461072  RH  042%=      5-min Rain = 0
KPPS 210750Z 17009KT 05/M07 A2982 RMK A01 T00481068  RH  043%=      5-min Rain = 0
KPPS 210755Z 17010KT 05/M06 A2982 RMK A01 T00501064  RH  043%=      5-min Rain = 0
KPPS 210800Z 17011KT 05/M06 A2982 RMK A01 T00521060  RH  044%=      5-min Rain = 0
KPPS 210805Z 17010KT 05/M06 A2981 RMK A01 T00531056  RH  045%=      5-min Rain = 0
KPPS 210810Z 17012KT 05/M05 A2981 RMK A01 T00541054  RH  046%=      5-min Rain = 0
KPPS 210815Z 17010KT 05/M05 A2981 RMK A01 T00541052  RH  047%=      5-min Rain = 0
KPPS 210820Z 17010KT 05/M05 A2981 RMK A01 T00531050  RH  047%=      5-min Rain = 0
KPPS 210825Z 18009KT 05/M05 A2981 RMK A01 T00531048  RH  048%=      5-min Rain = 0
KPPS 210830Z 18009KT 05/M05 A2981 RMK A01 T00531047  RH  049%=      5-min Rain = 0
KPPS 210835Z 18009KT 05/M05 A2981 RMK A01 T00521046  RH  049%=      5-min Rain = 0
KPPS 210840Z 17009KT 05/M05 A2981 RMK A01 T00511046  RH  050%=      5-min Rain = 0
KPPS 210845Z 17008KT 05/M04 A2981 RMK A01 T00511044  RH  050%=      5-min Rain = 0
KPPS 210850Z 17009KT 05/M04 A2981 RMK A01 T00511042  RH  051%=      5-min Rain = 0
KPPS 210855Z 18009KT 05/M04 A2981 RMK A01 T00521040  RH  052%=      5-min Rain = 0
KPPS 210900Z 17008KT 05/M04 A2981 RMK A01 T00511039  RH  052%=      5-min Rain = 0
KPPS 210905Z 18009KT 05/M04 A2982 RMK A01 T00511037  RH  053%=      5-min Rain = 0
KPPS 210910Z 18009KT 05/M03 A2981 RMK A01 T00531034  RH  054%=      5-min Rain = 0
KPPS 210915Z 18009KT 06/M03 A2981 RMK A01 T00551030  RH  055%=      5-min Rain = 0
KPPS 210920Z 18010KT 06/M03 A2981 RMK A01 T00571027  RH  055%=      5-min Rain = 0
KPPS 210925Z 18010KT 06/M03 A2981 RMK A01 T00591025  RH  055%=      5-min Rain = 0
KPPS 210930Z 18010KT 06/M02 A2981 RMK A01 T00601023  RH  055%=      5-min Rain = 0
KPPS 210935Z 18010KT 06/M02 A2981 RMK A01 T00611022  RH  056%=      5-min Rain = 0
KPPS 210940Z 18011KT 06/M02 A2981 RMK A01 T00631021  RH  055%=      5-min Rain = 0
KPPS 210945Z 17009KT 06/M02 A2981 RMK A01 T00621022  RH  056%=      5-min Rain = 0
KPPS 210950Z 17009KT 06/M02 A2981 RMK A01 T00621022  RH  056%=      5-min Rain = 0
KPPS 210955Z 17010KT 06/M02 A298 RMK A01 T00621021  RH  056%=      5-min Rain = 0
KPPS 211000Z 18010KT 06/M02 A298 RMK A01 T00631021  RH  055%=      5-min Rain = 0
KPPS 211005Z 18010KT 06/M02 A298 RMK A01 T00621021  RH  055%=      5-min Rain = 0
KPPS 211010Z 18010KT 06/M02 A298 RMK A01 T00621022  RH  055%=      5-min Rain = 0
KPPS 211015Z 18010KT 06/M02 A298 RMK A01 T00621022  RH  055%=      5-min Rain = 0
KPPS 211020Z 18009KT 06/M02 A298 RMK A01 T00621023  RH  055%=      5-min Rain = 0
KPPS 211025Z 18009KT 06/M02 A298 RMK A01 T00601023  RH  055%=      5-min Rain = 0
KPPS 211030Z 18009KT 06/M02 A298 RMK A01 T00601024  RH  055%=      5-min Rain = 0
KPPS 211035Z 18008KT 06/M02 A298 RMK A01 T00591024  RH  055%=      5-min Rain = 0
KPPS 211040Z 18007KT 06/M03 A298 RMK A01 T00571025  RH  056%=      5-min Rain = 0
KPPS 211045Z 18007KT 06/M03 A298 RMK A01 T00571026  RH  056%=      5-min Rain = 0
KPPS 211050Z 18007KT 06/M03 A298 RMK A01 T00551026  RH  056%=      5-min Rain = 0
KPPS 211055Z 18006KT 05/M03 A2979 RMK A01 T00541027  RH  057%=      5-min Rain = 0
KPPS 211100Z 18006KT 05/M03 A2979 RMK A01 T00521027  RH  057%=      5-min Rain = 0
KPPS 211105Z 17005KT 05/M03 A2979 RMK A01 T00501028  RH  057%=      5-min Rain = 0
KPPS 211110Z 16004KT 05/M03 A2979 RMK A01 T00491029  RH  058%=      5-min Rain = 0
KPPS 211115Z 14005KT 05/M03 A2979 RMK A01 T00461030  RH  058%=      5-min Rain = 0
KPPS 211120Z 14004KT 04/M03 A2978 RMK A01 T00441030  RH  059%=      5-min Rain = 0
KPPS 211125Z 13005KT 04/M03 A2978 RMK A01 T00431031  RH  059%=      5-min Rain = 0
KPPS 211130Z 13005KT 04/M03 A2978 RMK A01 T00411032  RH  059%=      5-min Rain = 0
KPPS 211135Z 13005KT 04/M03 A2978 RMK A01 T00411031  RH  060%=      5-min Rain = 0
KPPS 211140Z 13005KT 04/M03 A2978 RMK A01 T00411031  RH  060%=      5-min Rain = 0
KPPS 211145Z 12005KT 04/M03 A2977 RMK A01 T00411031  RH  060%=      5-min Rain = 0
KPPS 211150Z 13005KT 04/M03 A2978 RMK A01 T00411031  RH  059%=      5-min Rain = 0
KPPS 211155Z 12006KT 04/M03 A2978 RMK A01 T00391033  RH  060%=      5-min Rain = 0
KPPS 211200Z 13006KT 04/M03 A2978 RMK A01 T00351034  RH  061%=      5-min Rain = 0
KPPS 211205Z 12007KT 03/M04 A2978 RMK A01 T00311036  RH  062%=      5-min Rain = 0
KPPS 211210Z 13008KT 03/M04 A2978 RMK A01 T00271036  RH  064%=      5-min Rain = 0
KPPS 211215Z 12010KT 03/M04 A2977 RMK A01 T00261035  RH  064%=      5-min Rain = 0
KPPS 211220Z 15005KT 03/M03 A2978 RMK A01 T00311034  RH  063%=      5-min Rain = 0
KPPS 211225Z 15006KT 03/M03 A2978 RMK A01 T00331034  RH  062%=      5-min Rain = 0
KPPS 211230Z 14007KT 03/M04 A2978 RMK A01 T00311035  RH  062%=      5-min Rain = 0
KPPS 211235Z 15007KT 03/M04 A2978 RMK A01 T00281036  RH  063%=      5-min Rain = 0
KPPS 211240Z 15006KT 03/M04 A2979 RMK A01 T00271036  RH  063%=      5-min Rain = 0
KPPS 211245Z 15007KT 02/M04 A2979 RMK A01 T00241038  RH  064%=      5-min Rain = 0
KPPS 211250Z 15006KT 02/M04 A298 RMK A01 T00221038  RH  065%=      5-min Rain = 0
KPPS 211255Z 14006KT 02/M04 A2979 RMK A01 T00191040  RH  065%=      5-min Rain = 0
KPPS 211300Z 14006KT 02/M04 A2979 RMK A01 T00161041  RH  066%=      5-min Rain = 0
KPPS 211305Z 13006KT 02/M04 A2979 RMK A01 T00151041  RH  067%=      5-min Rain = 0
KPPS 211310Z 12006KT 01/M04 A2979 RMK A01 T00131041  RH  067%=      5-min Rain = 0
KPPS 211315Z 12005KT 02/M04 A2979 RMK A01 T00151040  RH  067%=      5-min Rain = 0
KPPS 211320Z 13004KT 02/M04 A298 RMK A01 T00161039  RH  067%=      5-min Rain = 0
KPPS 211325Z 13004KT 02/M04 A2979 RMK A01 T00161040  RH  067%=      5-min Rain = 0
KPPS 211330Z 12005KT 01/M04 A2979 RMK A01 T00131041  RH  067%=      5-min Rain = 0
KPPS 211335Z 13006KT 01/M04 A2979 RMK A01 T00101043  RH  068%=      5-min Rain = 0
KPPS 211340Z 13006KT 01/M04 A298 RMK A01 T00091042  RH  069%=      5-min Rain = 0
KPPS 211345Z 13006KT 01/M04 A298 RMK A01 T00101042  RH  069%=      5-min Rain = 0
KPPS 211350Z 14007KT 01/M04 A298 RMK A01 T00121040  RH  069%=      5-min Rain = 0
KPPS 211355Z 14007KT 02/M04 A298 RMK A01 T00161039  RH  067%=      5-min Rain = 0
KPPS 211400Z 14007KT 02/M04 A298 RMK A01 T00201038  RH  066%=      5-min Rain = 0
KPPS 211405Z 13007KT 02/M04 A298 RMK A01 T00211039  RH  065%=      5-min Rain = 0
KPPS 211410Z 13007KT 02/M04 A298 RMK A01 T00241038  RH  064%=      5-min Rain = 0
KPPS 211415Z 14006KT 03/M04 A298 RMK A01 T00261038  RH  063%=      5-min Rain = 0
KPPS 211420Z 14004KT 03/M04 A298 RMK A01 T00281037  RH  063%=      5-min Rain = 0
KPPS 211425Z 15005KT 03/M04 A2981 RMK A01 T00291037  RH  062%=      5-min Rain = 0
KPPS 211430Z 15006KT 03/M04 A298 RMK A01 T00301037  RH  062%=      5-min Rain = 0
KPPS 211435Z 15006KT 03/M04 A298 RMK A01 T00311037  RH  061%=      5-min Rain = 0
KPPS 211440Z 14006KT 03/M04 A298 RMK A01 T00331037  RH  060%=      5-min Rain = 0
KPPS 211445Z 14006KT 04/M04 A2981 RMK A01 T00351037  RH  060%=      5-min Rain = 0
KPPS 211450Z 15007KT 04/M04 A2981 RMK A01 T00371036  RH  059%=      5-min Rain = 0
KPPS 211455Z 15006KT 04/M04 A2981 RMK A01 T00391036  RH  059%=      5-min Rain = 0
KPPS 211500Z 15007KT 04/M03 A2981 RMK A01 T00441033  RH  057%=      5-min Rain = 0
KPPS 211505Z 15008KT 05/M03 A2981 RMK A01 T00481034  RH  056%=      5-min Rain = 0
KPPS 211510Z 15009KT 06/M03 A2981 RMK A01 T00561031  RH  054%=      5-min Rain = 0
KPPS 211515Z 15010KT 06/M03 A2981 RMK A01 T00631031  RH  051%=      5-min Rain = 0
KPPS 211520Z 15010KT 06/M03 A2981 RMK A01 T00641032  RH  050%=      5-min Rain = 0
KPPS 211525Z 15009KT 06/M03 A2981 RMK A01 T00631033  RH  050%=      5-min Rain = 0
KPPS 211530Z 16008KT 07/M03 A2981 RMK A01 T00661032  RH  050%=      5-min Rain = 0
KPPS 211535Z 16008KT 07/M03 A2981 RMK A01 T00731033  RH  047%=      5-min Rain = 0
KPPS 211540Z 16008KT 08/M03 A2981 RMK A01 T00761034  RH  046%=      5-min Rain = 0
KPPS 211545Z 17008KT 08/M03 A2982 RMK A01 T00801032  RH  045%=      5-min Rain = 0
KPPS 211550Z 17009KT 09/M03 A2982 RMK A01 T00851031  RH  044%=      5-min Rain = 0
KPPS 211555Z 18011KT 09/M03 A2982 RMK A01 T00871031  RH  043%=      5-min Rain = 0
KPPS 211600Z 18012KT 09/M03 A2982 RMK A01 T00891030  RH  043%=      5-min Rain = 0
KPPS 211605Z 17012KT 09/M03 A2982 RMK A01 T00941029  RH  042%=      5-min Rain = 0
KPPS 211610Z 17012KT 10/M03 A2982 RMK A01 T00961030  RH  041%=      5-min Rain = 0
KPPS 211615Z 18011KT 10/M03 A2982 RMK A01 T00991028  RH  041%=      5-min Rain = 0
KPPS 211620Z 17012KT 10/M03 A2981 RMK A01 T01031027  RH  040%=      5-min Rain = 0
KPPS 211625Z 18012KT 11/M03 A2981 RMK A01 T01061027  RH  040%=      5-min Rain = 0
KPPS 211630Z 18012G18KT 11/M03 A2981 RMK A01 T01081026  RH  039%=      5-min Rain = 0
KPPS 211635Z 17012KT 11/M03 A2982 RMK A01 T01111026  RH  039%=      5-min Rain = 0
KPPS 211640Z 17012G17KT 11/M03 A2982 RMK A01 T01131026  RH  038%=      5-min Rain = 0
KPPS 211645Z 17013KT 11/M03 A2982 RMK A01 T01131027  RH  038%=      5-min Rain = 0
KPPS 211650Z 16014KT 11/M03 A2981 RMK A01 T01141028  RH  037%=      5-min Rain = 0
KPPS 211655Z 17014KT 11/M03 A2981 RMK A01 T01141027  RH  037%=      5-min Rain = 0
KPPS 211700Z 17015G20KT 12/M03 A2981 RMK A01 T01171027  RH  037%=      5-min Rain = 0
KPPS 211705Z 17015KT 12/M03 A2981 RMK A01 T01171028  RH  037%=      5-min Rain = 0
KPPS 211710Z 16013KT 12/M03 A2981 RMK A01 T01201026  RH  036%=      5-min Rain = 0
KPPS 211715Z 17013KT 12/M03 A2981 RMK A01 T01221026  RH  036%=      5-min Rain = 0
KPPS 211720Z 17013KT 12/M03 A2981 RMK A01 T01241026  RH  035%=      5-min Rain = 0
KPPS 211725Z 17014KT 13/M03 A2981 RMK A01 T01251026  RH  035%=      5-min Rain = 0
KPPS 211730Z 16015KT 13/M03 A2981 RMK A01 T01271026  RH  035%=      5-min Rain = 0
KPPS 211735Z 17014KT 13/M03 A298 RMK A01 T01271027  RH  034%=      5-min Rain = 0
KPPS 211740Z 16013KT 13/M03 A298 RMK A01 T01321026  RH  034%=      5-min Rain = 0
KPPS 211745Z 17012KT 14/M03 A298 RMK A01 T01351026  RH  033%=      5-min Rain = 0
KPPS 211750Z 16011KT 13/M03 A298 RMK A01 T01341028  RH  033%=      5-min Rain = 0
KPPS 211755Z 17010KT 13/M03 A298 RMK A01 T01341026  RH  033%=      5-min Rain = 0
KPPS 211800Z 17011KT 14/M03 A298 RMK A01 T01381027  RH  032%=      5-min Rain = 0
KPPS 211805Z 17012KT 14/M03 A298 RMK A01 T01431027  RH  031%=      5-min Rain = 0
KPPS 211810Z 17011KT 15/M03 A298 RMK A01 T01471031  RH  029%=      5-min Rain = 0
KPPS 211815Z 18011KT 15/M03 A298 RMK A01 T01491032  RH  029%=      5-min Rain = 0
KPPS 211820Z 18009G15KT 15/M03 A2979 RMK A01 T01491030  RH  029%=      5-min Rain = 0
KPPS 211825Z 17011KT 15/M03 A2979 RMK A01 T01531032  RH  028%=      5-min Rain = 0
KPPS 211830Z 17010KT 16/M04 A2979 RMK A01 T01561036  RH  027%=      5-min Rain = 0
KPPS 211835Z 19011G18KT 16/M04 A2979 RMK A01 T01581038  RH  026%=      5-min Rain = 0
KPPS 211840Z 20008G14KT 16/M04 A2978 RMK A01 T01561039  RH  026%=      5-min Rain = 0
KPPS 211845Z 19009G17KT 16/M04 A2978 RMK A01 T01581039  RH  026%=      5-min Rain = 0
KPPS 211850Z 17010G15KT 16/M04 A2978 RMK A01 T01621041  RH  025%=      5-min Rain = 0
KPPS 211855Z 17011G18KT 16/M04 A2977 RMK A01 T01631041  RH  025%=      5-min Rain = 0
KPPS 211900Z 17009G14KT 17/M04 A2977 RMK A01 T01661038  RH  024%=      5-min Rain = 0
KPPS 211905Z 18011G16KT 17/M04 A2977 RMK A01 T01671042  RH  024%=      5-min Rain = 0
KPPS 211910Z 19010G19KT 16/M04 A2977 RMK A01 T01641041  RH  024%=      5-min Rain = 0
KPPS 211915Z 20010G18KT 16/M04 A2976 RMK A01 T01641039  RH  025%=      5-min Rain = 0
KPPS 211920Z 18010G16KT 17/M04 A2976 RMK A01 T01661042  RH  024%=      5-min Rain = 0
KPPS 211925Z 19013KT 17/M04 A2976 RMK A01 T01721041  RH  023%=      5-min Rain = 0
KPPS 211930Z 18012G17KT 17/M04 A2976 RMK A01 T01731041  RH  023%=      5-min Rain = 0
KPPS 211935Z 18011G16KT 18/M04 A2975 RMK A01 T01761043  RH  022%=      5-min Rain = 0
KPPS 211940Z 17013G19KT 18/M04 A2975 RMK A01 T01791043  RH  022%=      5-min Rain = 0
KPPS 211945Z 18014G20KT 18/M04 A2975 RMK A01 T01811044  RH  021%=      5-min Rain = 0
KPPS 211950Z 18013G19KT 18/M05 A2974 RMK A01 T01781045  RH  021%=      5-min Rain = 0
KPPS 211955Z 18011G16KT 18/M05 A2974 RMK A01 T01801048  RH  021%=      5-min Rain = 0
KPPS 212000Z 20013G18KT 18/M05 A2974 RMK A01 T01771049  RH  021%=      5-min Rain = 0
KPPS 212005Z 18013KT 18/M05 A2974 RMK A01 T01821047  RH  021%=      5-min Rain = 0
KPPS 212010Z 21012G22KT 18/M05 A2973 RMK A01 T01831053  RH  020%=      5-min Rain = 0
KPPS 212015Z 21014KT 18/M06 A2973 RMK A01 T01841055  RH  019%=      5-min Rain = 0
KPPS 212020Z 19013G21KT 19/M06 A2973 RMK A01 T01871055  RH  019%=      5-min Rain = 0
KPPS 212025Z 18016G21KT 18/M06 A2972 RMK A01 T01841059  RH  019%=      5-min Rain = 0
KPPS 212030Z 22016G22KT 18/M06 A2972 RMK A01 T01841058  RH  019%=      5-min Rain = 0
KPPS 212035Z 21017G23KT 19/M06 A2972 RMK A01 T01871063  RH  018%=      5-min Rain = 0
KPPS 212040Z 21014G24KT 18/M06 A2972 RMK A01 T01841064  RH  018%=      5-min Rain = 0
KPPS 212045Z 21017KT 19/M06 A2972 RMK A01 T01861063  RH  018%=      5-min Rain = 0
KPPS 212050Z 20014G20KT 19/M06 A2972 RMK A01 T01871063  RH  018%=      5-min Rain = 0
KPPS 212055Z 19015G27KT 19/M06 A2971 RMK A01 T01891064  RH  017%=      5-min Rain = 0
KPPS 212100Z 19017G23KT 19/M07 A2971 RMK A01 T01901066  RH  017%=      5-min Rain = 0
KPPS 212105Z 21016G23KT 19/M07 A2971 RMK A01 T01871066  RH  017%=      5-min Rain = 0
KPPS 212110Z 20011G16KT 18/M06 A2971 RMK A01 T01841063  RH  018%=      5-min Rain = 0
KPPS 212115Z 20016G22KT 18/M07 A2971 RMK A01 T01811066  RH  018%=      5-min Rain = 0
KPPS 212120Z 18014G23KT 19/M07 A2971 RMK A01 T01871066  RH  017%=      5-min Rain = 0
KPPS 212125Z 19016G22KT 18/M07 A2971 RMK A01 T01831066  RH  018%=      5-min Rain = 0
KPPS 212130Z 21011G17KT 18/M06 A2971 RMK A01 T01831064  RH  018%=      5-min Rain = 0
KPPS 212135Z 18013G19KT 19/M07 A2971 RMK A01 T01921066  RH  017%=      5-min Rain = 0
KPPS 212140Z 20015G22KT 19/M08 A2971 RMK A01 T01921078  RH  015%=      5-min Rain = 0
KPPS 212145Z 21015G21KT 19/M07 A297 RMK A01 T01931071  RH  016%=      5-min Rain = 0
KPPS 212150Z 21014G19KT 19/M07 A297 RMK A01 T01871070  RH  017%=      5-min Rain = 0
KPPS 212155Z 22012G20KT 19/M07 A297 RMK A01 T01911067  RH  017%=      5-min Rain = 0
KPPS 212200Z 19019G25KT 19/M07 A297 RMK A01 T01921072  RH  016%=      5-min Rain = 0
KPPS 212205Z 20017G22KT 19/M07 A297 RMK A01 T01901070  RH  017%=      5-min Rain = 0
KPPS 212210Z 19014G20KT 19/M07 A2971 RMK A01 T01921066  RH  017%=      5-min Rain = 0
KPPS 212215Z 17011G18KT 19/M06 A297 RMK A01 T01931063  RH  017%=      5-min Rain = 0
KPPS 212220Z 19015G21KT 19/M07 A297 RMK A01 T01901069  RH  017%=      5-min Rain = 0
KPPS 212225Z 19017G23KT 19/M07 A2971 RMK A01 T01881071  RH  017%=      5-min Rain = 0
KPPS 212230Z 20011G17KT 19/M07 A2971 RMK A01 T01901067  RH  017%=      5-min Rain = 0
KPPS 212235Z 19010G22KT 19/M07 A2971 RMK A01 T01911066  RH  017%=      5-min Rain = 0
KPPS 212240Z 18014G21KT 19/M07 A297 RMK A01 T01931066  RH  017%=      5-min Rain = 0
KPPS 212245Z 19014G23KT 19/M07 A2971 RMK A01 T01941069  RH  016%=      5-min Rain = 0
KPPS 212250Z 22011KT 19/M08 A2971 RMK A01 T01861075  RH  016%=      5-min Rain = 0
KPPS 212255Z 22010G15KT 18/M08 A2971 RMK A01 T01831075  RH  017%=      5-min Rain = 0
KPPS 212300Z 19010KT 18/M08 A2971 RMK A01 T01801076  RH  017%=      5-min Rain = 0
KPPS 212305Z 18011G16KT 18/M07 A2971 RMK A01 T01791071  RH  018%=      5-min Rain = 0
KPPS 212310Z 19011KT 19/M07 A2971 RMK A01 T01881071  RH  017%=      5-min Rain = 0
KPPS 212315Z 20011KT 18/M07 A2971 RMK A01 T01841072  RH  017%=      5-min Rain = 0
KPPS 212320Z 19014G20KT 18/M07 A2971 RMK A01 T01831071  RH  017%=      5-min Rain = 0
KPPS 212325Z 19014G19KT 19/M07 A2971 RMK A01 T01871069  RH  017%=      5-min Rain = 0
KPPS 212330Z 20012G17KT 18/M07 A2971 RMK A01 T01841070  RH  017%=      5-min Rain = 0
KPPS 212335Z 20010KT 19/M07 A2971 RMK A01 T01851067  RH  017%=      5-min Rain = 0
KPPS 212340Z 19013G18KT 19/M07 A2971 RMK A01 T01861068  RH  017%=      5-min Rain = 0
KPPS 212345Z 18013KT 19/M07 A2972 RMK A01 T01851068  RH  017%=      5-min Rain = 0
KPPS 212350Z 18013G18KT 18/M07 A2972 RMK A01 T01821070  RH  017%=      5-min Rain = 0
KPPS 212355Z 18012KT 18/M07 A2972 RMK A01 T01801071  RH  017%=      5-min Rain = 0
KPPS 220000Z 17015G21KT 18/M07 A2972 RMK A01 T01811072  RH  017%=      5-min Rain = 0
KPPS 220005Z 14014KT 17/M03 A2972 RMK A01 T01701025  RH  027%=      5-min Rain = 0
KPPS 220010Z 13015G20KT 16/M01 A2972 RMK A01 T01581012  RH  032%=      5-min Rain = 0
KPPS 220015Z 13021G27KT 15/M01 A2972 RMK A01 T01511008  RH  034%=      5-min Rain = 0
KPPS 220020Z 13018G24KT 15/M01 A2973 RMK A01 T01471007  RH  035%=      5-min Rain = 0
KPPS 220025Z 13016G21KT 14/M01 A2973 RMK A01 T01431007  RH  036%=      5-min Rain = 0
KPPS 220030Z 13016G22KT 14/M01 A2973 RMK A01 T01421006  RH  037%=      5-min Rain = 0
KPPS 220035Z 13015G22KT 14/M01 A2974 RMK A01 T01391006  RH  037%=      5-min Rain = 0
KPPS 220040Z 13017G24KT 14/M01 A2974 RMK A01 T01381005  RH  038%=      5-min Rain = 0
KPPS 220045Z 13017KT 14/M01 A2974 RMK A01 T01351005  RH  038%=      5-min Rain = 0
KPPS 220050Z 13017G22KT 13/M00 A2974 RMK A01 T01331004  RH  039%=      5-min Rain = 0
KPPS 220055Z 13018G23KT 13/M00 A2974 RMK A01 T01331003  RH  040%=      5-min Rain = 0
KPPS 220100Z 13015G20KT 13/M00 A2975 RMK A01 T01311002  RH  040%=      5-min Rain = 0
KPPS 220105Z 13016G22KT 13/M00 A2975 RMK A01 T01301001  RH  041%=      5-min Rain = 0
KPPS 220110Z 13017KT 13/M00 A2975 RMK A01 T01291001  RH  041%=      5-min Rain = 0
KPPS 220115Z 13016G21KT 13/00 A2975 RMK A01 T012700-0  RH  042%=      5-min Rain = 0
KPPS 220120Z 13017G23KT 13/00 A2975 RMK A01 T01250001  RH  043%=      5-min Rain = 0
KPPS 220125Z 13018G25KT 12/00 A2976 RMK A01 T01230003  RH  044%=      5-min Rain = 0
KPPS 220130Z 13018KT 12/00 A2976 RMK A01 T01210004  RH  045%=      5-min Rain = 0
KPPS 220135Z 13018G25KT 12/00 A2976 RMK A01 T01200004  RH  045%=      5-min Rain = 0
KPPS 220140Z 13017G23KT 12/00 A2976 RMK A01 T01190004  RH  046%=      5-min Rain = 0
KPPS 220145Z 13017G22KT 12/00 A2976 RMK A01 T01180004  RH  046%=      5-min Rain = 0
KPPS 220150Z 13017G24KT 12/01 A2977 RMK A01 T01160005  RH  047%=      5-min Rain = 0
KPPS 220155Z 13017G22KT 11/01 A2977 RMK A01 T01140005  RH  047%=      5-min Rain = 0
KPPS 220200Z 13015G20KT 11/01 A2977 RMK A01 T01120005  RH  048%=      5-min Rain = 0
KPPS 220205Z 13017G22KT 11/01 A2977 RMK A01 T01110006  RH  049%=      5-min Rain = 0
KPPS 220210Z 13016KT 11/01 A2978 RMK A01 T01110007  RH  049%=      5-min Rain = 0
KPPS 220215Z 12016G21KT 11/01 A2978 RMK A01 T01090007  RH  050%=      5-min Rain = 0
KPPS 220220Z 12016KT 11/01 A2978 RMK A01 T01050008  RH  052%=      5-min Rain = 0
KPPS 220225Z 13019G24KT 10/01 A2978 RMK A01 T01040010  RH  053%=      5-min Rain = 0
KPPS 220230Z 12018G24KT 10/01 A2978 RMK A01 T01030010  RH  053%=      5-min Rain = 0
KPPS 220235Z 12017G23KT 10/01 A2979 RMK A01 T01000010  RH  054%=      5-min Rain = 0
KPPS 220240Z 12016G21KT 10/01 A2979 RMK A01 T00990010  RH  054%=      5-min Rain = 0
KPPS 220245Z 12016KT 10/01 A2979 RMK A01 T00980009  RH  055%=      5-min Rain = 0
KPPS 220250Z 12016G22KT 10/01 A2979 RMK A01 T00970009  RH  055%=      5-min Rain = 0
KPPS 220255Z 12017KT 10/01 A2979 RMK A01 T00960009  RH  055%=      5-min Rain = 0
KPPS 220300Z 12016G23KT 09/01 A2979 RMK A01 T00930008  RH  056%=      5-min Rain = 0
KPPS 220305Z 12018G23KT 09/01 A2979 RMK A01 T00920008  RH  056%=      5-min Rain = 0
KPPS 220310Z 12017G22KT 09/01 A2979 RMK A01 T00900008  RH  057%=      5-min Rain = 0
KPPS 220315Z 12017KT 09/01 A2979 RMK A01 T00890008  RH  058%=      5-min Rain = 0
KPPS 220320Z 12016KT 09/01 A2979 RMK A01 T00870008  RH  058%=      5-min Rain = 0
KPPS 220325Z 12016G21KT 09/01 A2979 RMK A01 T00860008  RH  059%=      5-min Rain = 0
KPPS 220330Z 12016KT 09/01 A2979 RMK A01 T00850007  RH  059%=      5-min Rain = 0
KPPS 220335Z 12016KT 08/01 A2979 RMK A01 T00830007  RH  059%=      5-min Rain = 0
KPPS 220340Z 12015KT 08/01 A298 RMK A01 T00810007  RH  060%=      5-min Rain = 0
KPPS 220345Z 13015KT 08/01 A298 RMK A01 T00790006  RH  061%=      5-min Rain = 0
KPPS 220350Z 12014G19KT 08/01 A298 RMK A01 T00770006  RH  061%=      5-min Rain = 0
KPPS 220355Z 12014KT 08/01 A298 RMK A01 T00760005  RH  062%=      5-min Rain = 0
KPPS 220400Z 12014G19KT 07/00 A298 RMK A01 T00740004  RH  062%=      5-min Rain = 0
KPPS 220405Z 12015KT 07/00 A2981 RMK A01 T00720003  RH  062%=      5-min Rain = 0
KPPS 220410Z 12014KT 07/00 A2981 RMK A01 T00710002  RH  062%=      5-min Rain = 0
KPPS 220415Z 12016KT 07/00 A2981 RMK A01 T00690001  RH  062%=      5-min Rain = 0
KPPS 220420Z 12015G20KT 07/M00 A2981 RMK A01 T00691001  RH  062%=      5-min Rain = 0
KPPS 220425Z 12014G20KT 07/M00 A2981 RMK A01 T00671002  RH  062%=      5-min Rain = 0
KPPS 220430Z 12015G20KT 07/M00 A2981 RMK A01 T00671004  RH  061%=      5-min Rain = 0
KPPS 220435Z 12014KT 07/M01 A2982 RMK A01 T00651005  RH  061%=      5-min Rain = 0
KPPS 220440Z 12014G19KT 06/M01 A2982 RMK A01 T00631007  RH  062%=      5-min Rain = 0
KPPS 220445Z 12014KT 06/M01 A2982 RMK A01 T00611008  RH  062%=      5-min Rain = 0
KPPS 220450Z 12015G20KT 06/M01 A2982 RMK A01 T00601009  RH  062%=      5-min Rain = 0
KPPS 220455Z 12016G21KT 06/M01 A2982 RMK A01 T00591010  RH  061%=      5-min Rain = 0
KPPS 220500Z 12016KT 06/M01 A2982 RMK A01 T00591012  RH  061%=      5-min Rain = 0
KPPS 220505Z 12017KT 06/M01 A2982 RMK A01 T00581013  RH  061%=      5-min Rain = 0
KPPS 220510Z 12016KT 06/M02 A2982 RMK A01 T00571015  RH  060%=      5-min Rain = 0
KPPS 220515Z 12016G21KT 06/M02 A2982 RMK A01 T00561016  RH  060%=      5-min Rain = 0
KPPS 220520Z 12016KT 06/M02 A2982 RMK A01 T00561018  RH  060%=      5-min Rain = 0
KPPS 220525Z 12016G21KT 06/M02 A2982 RMK A01 T00551018  RH  060%=      5-min Rain = 0
KPPS 220530Z 12015KT 05/M02 A2982 RMK A01 T00531019  RH  060%=      5-min Rain = 0
KPPS 220535Z 12015KT 05/M02 A2982 RMK A01 T00521020  RH  060%=      5-min Rain = 0
KPPS 220540Z 12016KT 05/M02 A2982 RMK A01 T00511021  RH  060%=      5-min Rain = 0
KPPS 220545Z 12015KT 05/M02 A2982 RMK A01 T00501021  RH  060%=      5-min Rain = 0
KPPS 220550Z 12014KT 05/M02 A2982 RMK A01 T00491021  RH  061%=      5-min Rain = 0
KPPS 220555Z 12014KT 05/M02 A2982 RMK A01 T00481020  RH  062%=      5-min Rain = 0

Page generated in 0.0158 seconds.